Time;durP1;ratioP1;P1;durP2;ratioP2;P2;SDS_P1;SDS_P2;PMS_P1;PMS_P2;Temp;Humidity;BMP_temperature;BMP_pressure;BME280_temperature;BME280_humidity;BME280_pressure;Samples;Min_cycle;Max_cycle;Signal;HPM_P1;HPM_P2
2024/04/06 00:01:40;;;;;;;19.30;9.70;;;;;;;19.25;46.35;100244.71;108042;1254;72716;-69
2024/04/06 00:04:08;;;;;;;14.70;8.40;;;;;;;19.13;46.51;100251.11;107950;1259;61730;-68
2024/04/06 00:06:35;;;;;;;12.90;8.10;;;;;;;19.06;46.51;100253.49;108040;1252;62626;-68
2024/04/06 00:09:03;;;;;;;14.20;8.40;;;;;;;18.96;46.88;100251.54;108057;1253;73443;-67
2024/04/06 00:11:30;;;;;;;12.00;7.50;;;;;;;18.94;47.19;100251.84;108037;1254;69055;-67
2024/04/06 00:13:57;;;;;;;12.80;8.10;;;;;;;18.96;47.36;100250.98;108022;1254;73235;-69
2024/04/06 00:16:25;;;;;;;12.50;6.90;;;;;;;19.03;47.35;100255.52;108092;1254;61155;-69
2024/04/06 00:18:53;;;;;;;11.20;6.80;;;;;;;18.98;47.46;100257.44;108098;1254;61252;-69
2024/04/06 00:21:20;;;;;;;11.50;6.90;;;;;;;18.94;47.79;100258.96;108074;1254;73806;-68
2024/04/06 00:23:47;;;;;;;12.00;6.90;;;;;;;18.99;47.68;100256.65;108124;1254;68769;-67
2024/04/06 00:26:15;;;;;;;12.00;6.90;;;;;;;18.99;47.75;100253.44;108124;1257;72436;-69
2024/04/06 00:28:42;;;;;;;9.40;6.40;;;;;;;18.93;48.10;100254.95;108049;1254;61222;-67
2024/04/06 00:31:09;;;;;;;10.80;6.30;;;;;;;19.04;47.85;100258.28;108047;1253;61224;-67
2024/04/06 00:33:36;;;;;;;10.40;6.30;;;;;;;18.99;48.03;100255.25;108067;1253;74676;-68
2024/04/06 00:36:04;;;;;;;11.10;6.40;;;;;;;19.04;48.06;100255.97;108094;1252;70358;-68
2024/04/06 00:38:31;;;;;;;11.70;6.90;;;;;;;19.00;48.27;100254.84;108111;1252;72433;-68
2024/04/06 00:40:58;;;;;;;10.10;6.00;;;;;;;19.05;48.24;100258.17;108112;1253;61221;-68
2024/04/06 00:43:28;;;;;;;11.50;6.40;;;;;;;19.16;47.98;100259.39;108135;1252;61100;-68
2024/04/06 00:45:55;;;;;;;9.30;5.40;;;;;;;19.31;47.79;100256.89;108117;1253;73528;-67
2024/04/06 00:48:22;;;;;;;10.10;6.30;;;;;;;19.26;47.92;100260.42;108131;1253;71380;-68
2024/04/06 00:50:51;;;;;;;9.40;5.70;;;;;;;19.32;47.68;100265.16;108151;1254;71490;-67
2024/04/06 00:53:19;;;;;;;8.00;4.80;;;;;;;19.16;47.87;100262.22;108148;1253;61882;-67
2024/04/06 00:55:47;;;;;;;8.90;5.80;;;;;;;19.10;48.43;100265.18;108182;1254;61115;-68
2024/04/06 00:58:14;;;;;;;8.50;5.30;;;;;;;19.12;48.02;100267.20;108172;1252;74741;-68
2024/04/06 01:00:41;;;;;;;7.20;5.00;;;;;;;19.11;48.22;100268.69;108057;1253;69921;-68
2024/04/06 01:03:09;;;;;;;8.40;6.00;;;;;;;19.14;48.17;100265.93;108139;1256;72401;-68
2024/04/06 01:05:36;;;;;;;9.40;5.50;;;;;;;19.08;48.13;100261.71;108154;1252;61614;-69
2024/04/06 01:08:03;;;;;;;9.50;6.40;;;;;;;18.97;48.48;100257.48;108160;1253;61156;-66
2024/04/06 01:10:31;;;;;;;9.00;6.10;;;;;;;18.89;48.33;100262.15;108147;1254;73179;-68
2024/04/06 01:12:59;;;;;;;13.10;6.10;;;;;;;18.88;48.25;100259.78;108162;1253;69258;-67
2024/04/06 01:15:27;;;;;;;9.10;6.10;;;;;;;18.83;48.54;100264.76;108252;1253;72694;-67
2024/04/06 01:17:56;;;;;;;8.90;6.00;;;;;;;18.77;48.69;100270.84;108174;1253;61221;-68
2024/04/06 01:20:24;;;;;;;8.90;6.20;;;;;;;18.75;49.00;100272.60;108167;1252;61135;-69
2024/04/06 01:22:51;;;;;;;11.50;6.30;;;;;;;18.66;49.03;100274.73;108175;1256;73412;-68
2024/04/06 01:25:18;;;;;;;10.00;5.70;;;;;;;18.69;48.88;100273.65;108140;1253;71390;-68
2024/04/06 01:27:46;;;;;;;7.90;5.70;;;;;;;18.75;48.74;100271.65;108063;1253;71387;-68
2024/04/06 01:30:13;;;;;;;10.40;6.40;;;;;;;18.58;48.85;100267.66;108086;1257;61125;-67
2024/04/06 01:32:52;;;;;;;9.80;6.20;;;;;;;18.55;48.90;100262.48;108088;1252;61111;-68
2024/04/06 01:35:19;;;;;;;9.30;6.30;;;;;;;18.53;48.95;100261.98;108049;1252;73419;-67
2024/04/06 01:37:47;;;;;;;10.30;5.60;;;;;;;18.63;48.76;100259.86;108140;1254;67862;-69
2024/04/06 01:40:14;;;;;;;12.20;6.00;;;;;;;18.55;48.91;100253.42;108134;1254;72001;-69
2024/04/06 01:42:41;;;;;;;11.80;6.50;;;;;;;18.49;49.04;100247.33;108206;1253;61266;-68
2024/04/06 01:45:08;;;;;;;10.40;6.20;;;;;;;18.42;49.02;100245.66;108138;1253;61160;-69
2024/04/06 01:47:36;;;;;;;9.20;6.20;;;;;;;18.42;48.91;100242.11;108146;1256;73422;-69
2024/04/06 01:50:05;;;;;;;7.80;5.70;;;;;;;18.36;48.90;100243.88;108152;1254;70132;-69
2024/04/06 01:52:33;;;;;;;10.40;6.00;;;;;;;18.20;49.18;100245.67;108093;1254;71463;-67
2024/04/06 01:55:02;;;;;;;11.80;6.80;;;;;;;18.16;49.10;100245.05;108136;1253;61240;-66
2024/04/06 01:57:29;;;;;;;10.30;6.30;;;;;;;18.14;48.89;100251.74;108191;1253;61192;-68
2024/04/06 01:59:57;;;;;;;11.30;7.00;;;;;;;18.01;48.74;100251.59;108168;1253;74588;-68
2024/04/06 02:02:27;;;;;;;11.60;7.10;;;;;;;17.86;48.75;100250.60;108168;1254;68696;-68
2024/04/06 02:04:55;;;;;;;11.90;7.40;;;;;;;17.69;49.21;100252.92;108128;1252;72719;-68
2024/04/06 02:07:22;;;;;;;13.00;7.90;;;;;;;17.56;49.38;100250.05;108146;1256;62066;-68
2024/04/06 02:09:49;;;;;;;12.80;7.40;;;;;;;17.46;49.42;100249.08;108173;1254;61444;-67
2024/04/06 02:12:17;;;;;;;10.20;7.00;;;;;;;17.45;49.23;100250.00;108179;1252;74690;-67
2024/04/06 02:14:44;;;;;;;8.80;6.40;;;;;;;17.38;49.30;100239.81;108202;1253;70156;-67
2024/04/06 02:17:11;;;;;;;12.20;7.70;;;;;;;17.31;49.36;100239.19;108158;1254;72501;-68
2024/04/06 02:19:38;;;;;;;12.00;6.60;;;;;;;17.15;49.50;100241.45;108143;1254;61192;-68
2024/04/06 02:24:20;;;;;;;12.30;7.60;;;;;;;14.69;55.42;100249.31;104918;1289;600326;-68
2024/04/06 02:26:48;;;;;;;13.60;7.90;;;;;;;15.46;53.33;100246.86;107715;1258;59789;-67
2024/04/06 02:29:15;;;;;;;13.70;7.90;;;;;;;15.35;53.37;100246.96;107644;1257;59671;-68
2024/04/06 02:31:43;;;;;;;12.70;7.80;;;;;;;15.14;53.85;100243.15;107669;1257;71358;-68
2024/04/06 02:34:10;;;;;;;10.40;7.60;;;;;;;15.01;54.11;100244.00;107630;1262;69032;-68
2024/04/06 02:36:38;;;;;;;15.10;7.60;;;;;;;15.11;53.90;100244.35;107619;1256;73068;-68
2024/04/06 02:39:09;;;;;;;10.60;6.80;;;;;;;15.20;53.77;100247.58;107764;1255;202568;-68
2024/04/06 02:41:37;;;;;;;12.30;7.20;;;;;;;14.88;54.50;100248.06;107944;1255;59002;-67
2024/04/06 02:44:05;;;;;;;9.50;6.20;;;;;;;14.99;54.29;100246.95;107896;1255;73093;-67
2024/04/06 02:46:33;;;;;;;12.50;7.20;;;;;;;14.96;54.36;100245.73;108006;1254;68775;-68
2024/04/06 02:49:02;;;;;;;11.90;8.20;;;;;;;14.82;54.78;100245.03;107876;1255;72650;-68
2024/04/06 02:51:30;;;;;;;12.00;7.80;;;;;;;14.82;54.88;100251.02;107851;1256;60293;-69
2024/04/06 02:53:57;;;;;;;11.50;8.10;;;;;;;14.76;55.06;100251.54;107869;1256;60441;-69
2024/04/06 02:56:25;;;;;;;15.10;8.00;;;;;;;14.76;55.11;100252.05;107930;1257;73823;-68
2024/04/06 02:58:52;;;;;;;10.30;7.50;;;;;;;14.55;55.55;100254.22;107932;1256;68847;-68
2024/04/06 03:01:19;;;;;;;14.30;8.70;;;;;;;14.50;55.68;100257.11;107880;1256;71382;-68
2024/04/06 03:03:47;;;;;;;11.80;8.40;;;;;;;14.48;55.84;100258.27;107876;1256;61063;-68
2024/04/06 03:06:14;;;;;;;11.60;8.50;;;;;;;14.59;55.59;100256.62;107873;1256;60331;-67
2024/04/06 03:08:42;;;;;;;12.30;8.40;;;;;;;14.66;55.35;100258.42;107898;1257;72525;-68
2024/04/06 03:11:09;;;;;;;10.80;8.30;;;;;;;14.68;55.56;100255.84;107872;1257;69882;-67
2024/04/06 03:13:36;;;;;;;13.30;8.90;;;;;;;14.60;55.74;100256.96;107869;1257;70436;-67
2024/04/06 03:16:04;;;;;;;12.00;9.00;;;;;;;14.44;56.14;100256.65;107847;1257;60895;-67
2024/04/06 03:18:32;;;;;;;14.50;9.10;;;;;;;14.45;56.34;100257.36;107936;1257;60369;-67
2024/04/06 03:20:59;;;;;;;15.60;10.00;;;;;;;14.36;56.72;100254.41;107878;1257;73834;-68
2024/04/06 03:23:26;;;;;;;14.00;9.60;;;;;;;14.44;56.68;100254.04;107871;1257;70426;-69
2024/04/06 03:25:55;;;;;;;12.80;9.60;;;;;;;14.54;56.59;100254.42;107831;1254;72996;-68
2024/04/06 03:28:22;;;;;;;16.80;10.80;;;;;;;14.46;56.72;100253.20;107850;1256;60926;-67
2024/04/06 03:30:49;;;;;;;12.90;9.40;;;;;;;14.47;56.92;100250.35;107848;1254;60306;-68
2024/04/06 03:33:17;;;;;;;15.40;10.90;;;;;;;14.46;57.09;100250.77;107898;1254;73831;-67
2024/04/06 03:35:44;;;;;;;13.80;10.60;;;;;;;14.55;57.20;100248.05;107855;1257;70214;-68
2024/04/06 03:38:11;;;;;;;14.90;10.20;;;;;;;14.50;57.52;100247.39;107875;1262;72638;-67
2024/04/06 03:40:38;;;;;;;14.80;9.90;;;;;;;14.48;57.63;100247.83;107857;1256;60954;-67
2024/04/06 03:43:06;;;;;;;12.70;8.80;;;;;;;14.39;57.91;100246.49;107839;1257;60421;-67
2024/04/06 03:45:36;;;;;;;15.40;10.20;;;;;;;14.28;58.17;100245.15;107843;1257;74114;-69
2024/04/06 03:48:03;;;;;;;12.30;8.70;;;;;;;14.40;58.02;100245.04;108104;1252;69992;-68
2024/04/06 03:50:31;;;;;;;12.50;8.00;;;;;;;14.54;57.54;100250.38;108200;1251;71264;-67
2024/04/06 03:53:00;;;;;;;14.00;8.90;;;;;;;14.70;56.90;100250.25;108204;1253;63054;-69
2024/04/06 03:55:27;;;;;;;14.00;8.90;;;;;;;14.60;57.07;100246.34;108171;1253;60467;-68
2024/04/06 03:57:54;;;;;;;13.50;8.90;;;;;;;14.70;57.03;100251.48;108156;1254;73883;-68
2024/04/06 04:00:22;;;;;;;15.30;9.50;;;;;;;14.75;56.92;100247.36;108208;1253;68798;-69
2024/04/06 04:02:49;;;;;;;15.30;10.00;;;;;;;14.67;57.22;100244.40;108123;1253;71988;-70
2024/04/06 04:05:16;;;;;;;24.40;10.60;;;;;;;14.69;57.39;100241.67;108157;1253;61804;-68
2024/04/06 04:07:44;;;;;;;18.10;10.90;;;;;;;14.68;57.60;100241.20;108157;1254;60329;-69
2024/04/06 04:10:11;;;;;;;16.40;10.80;;;;;;;14.81;57.62;100241.36;108241;1251;72608;-68
2024/04/06 04:12:38;;;;;;;21.50;11.90;;;;;;;14.80;58.06;100239.64;108230;1257;70101;-68
2024/04/06 04:15:06;;;;;;;18.10;11.50;;;;;;;14.85;58.17;100239.92;108165;1251;71521;-69
2024/04/06 04:17:33;;;;;;;19.10;11.70;;;;;;;14.93;58.38;100231.71;108176;1253;60871;-68
2024/04/06 04:20:01;;;;;;;16.60;10.80;;;;;;;15.20;58.77;100231.46;108158;1253;60316;-68
2024/04/06 04:22:28;;;;;;;19.50;10.70;;;;;;;15.51;58.93;100226.60;108196;1254;73898;-68
2024/04/06 04:24:57;;;;;;;17.30;10.00;;;;;;;15.97;58.57;100234.29;108174;1251;70793;-68
2024/04/06 04:27:24;;;;;;;12.80;9.50;;;;;;;16.51;57.87;100227.95;108170;1252;72512;-69
2024/04/06 04:29:52;;;;;;;12.90;8.80;;;;;;;16.98;57.55;100229.86;108160;1251;61663;-68
2024/04/06 04:32:19;;;;;;;13.20;9.10;;;;;;;17.60;56.18;100227.54;108148;1253;60933;-67
2024/04/06 04:34:46;;;;;;;14.40;8.50;;;;;;;17.82;55.31;100223.14;108159;1257;72543;-69
2024/04/06 04:37:15;;;;;;;14.20;8.60;;;;;;;17.89;54.57;100222.70;108071;1253;69948;-68
2024/04/06 04:39:43;;;;;;;10.40;7.00;;;;;;;17.93;53.91;100225.45;108009;1254;72765;-68
2024/04/06 04:42:10;;;;;;;11.50;8.10;;;;;;;17.94;53.52;100227.50;108062;1253;61314;-68
2024/04/06 04:44:37;;;;;;;12.50;8.30;;;;;;;17.98;53.16;100233.84;107947;1253;60304;-68
2024/04/06 04:47:09;;;;;;;11.60;8.30;;;;;;;18.16;52.35;100231.22;108074;1252;73863;-68
2024/04/06 04:49:37;;;;;;;13.40;7.90;;;;;;;18.18;52.06;100236.38;108047;1253;69515;-68
2024/04/06 04:52:04;;;;;;;9.60;7.70;;;;;;;18.22;51.96;100236.48;108043;1253;72833;-69
2024/04/06 04:54:31;;;;;;;11.00;6.70;;;;;;;18.33;51.61;100234.70;108040;1253;61722;-68
2024/04/06 04:56:59;;;;;;;11.00;7.70;;;;;;;18.42;51.59;100233.51;108035;1258;60352;-68
2024/04/06 04:59:26;;;;;;;10.50;7.00;;;;;;;18.44;51.57;100235.69;108035;1253;72700;-68
2024/04/06 05:01:53;;;;;;;12.60;8.40;;;;;;;18.48;51.22;100235.80;107982;1253;68764;-70
2024/04/06 05:04:20;;;;;;;8.50;6.80;;;;;;;18.42;51.45;100237.63;108067;1254;72736;-69
2024/04/06 05:06:47;;;;;;;12.00;7.00;;;;;;;18.62;51.14;100236.28;108034;1254;60940;-69
2024/04/06 05:09:15;;;;;;;13.00;8.20;;;;;;;18.74;50.93;100234.76;108051;1253;61028;-69
2024/04/06 05:11:42;;;;;;;11.00;6.20;;;;;;;18.87;50.88;100232.79;108109;1253;72559;-69
2024/04/06 05:14:10;;;;;;;10.90;6.80;;;;;;;19.16;50.01;100230.02;108087;1253;68592;-69
2024/04/06 05:16:37;;;;;;;13.00;7.10;;;;;;;19.38;49.45;100231.80;108090;1253;72676;-69
2024/04/06 05:19:05;;;;;;;10.20;6.40;;;;;;;19.38;49.26;100230.05;108134;1253;61653;-68
2024/04/06 05:21:33;;;;;;;14.00;7.30;;;;;;;19.17;49.43;100223.23;108134;1252;59985;-69
2024/04/06 05:24:00;;;;;;;9.00;5.80;;;;;;;19.16;49.30;100223.80;108082;1253;73918;-69
2024/04/06 05:26:27;;;;;;;14.50;6.80;;;;;;;19.07;49.09;100223.58;108117;1253;69001;-68
2024/04/06 05:28:55;;;;;;;13.70;7.70;;;;;;;19.12;49.14;100225.70;108116;1253;71393;-69
2024/04/06 05:31:22;;;;;;;9.60;6.40;;;;;;;19.06;49.08;100224.51;108066;1253;61751;-69
2024/04/06 05:33:49;;;;;;;19.00;8.10;;;;;;;19.02;49.14;100222.33;108061;1253;60389;-68
2024/04/06 05:36:17;;;;;;;9.70;7.10;;;;;;;19.00;49.31;100224.90;108107;1253;73810;-68
2024/04/06 05:38:44;;;;;;;10.00;8.10;;;;;;;19.00;49.25;100224.23;107938;1253;68870;-69
2024/04/06 05:41:11;;;;;;;14.80;8.70;;;;;;;19.03;49.09;100225.59;108118;1253;72703;-68
2024/04/06 05:43:39;;;;;;;12.40;7.60;;;;;;;19.05;49.17;100225.11;108130;1253;60992;-68
2024/04/06 05:46:06;;;;;;;12.40;7.80;;;;;;;18.89;49.27;100224.98;108139;1252;60392;-67
2024/04/06 05:48:33;;;;;;;14.10;8.70;;;;;;;18.95;49.12;100222.41;108140;1253;73764;-69
2024/04/06 05:51:00;;;;;;;12.50;8.80;;;;;;;18.98;49.29;100220.10;108119;1253;69169;-68
2024/04/06 05:53:28;;;;;;;16.00;9.90;;;;;;;19.02;48.95;100219.95;108138;1253;71521;-68
2024/04/06 05:55:55;;;;;;;14.40;8.80;;;;;;;19.16;48.94;100224.35;107993;1253;61644;-69
2024/04/06 05:58:23;;;;;;;15.90;9.70;;;;;;;19.23;48.91;100225.06;108077;1253;60277;-68
2024/04/06 06:00:50;;;;;;;19.00;10.60;;;;;;;19.37;48.48;100224.78;108186;1253;72638;-69
2024/04/06 06:03:17;;;;;;;15.60;8.80;;;;;;;19.54;48.26;100224.30;108155;1253;70286;-68
2024/04/06 06:05:44;;;;;;;14.80;8.60;;;;;;;19.67;47.50;100221.95;107978;1258;72725;-69
2024/04/06 06:08:12;;;;;;;13.30;8.10;;;;;;;19.56;47.72;100224.66;108141;1253;61672;-69
2024/04/06 06:10:39;;;;;;;12.80;8.70;;;;;;;19.47;48.25;100225.48;108153;1253;60688;-69
2024/04/06 06:13:06;;;;;;;17.10;10.40;;;;;;;19.43;48.06;100223.84;108126;1253;73838;-69
2024/04/06 06:15:33;;;;;;;12.50;7.90;;;;;;;19.54;48.20;100226.61;108131;1257;69223;-69
2024/04/06 06:18:01;;;;;;;16.00;10.30;;;;;;;19.71;47.68;100221.95;108159;1253;73013;-69
2024/04/06 06:20:29;;;;;;;17.40;10.10;;;;;;;19.97;47.37;100225.40;108132;1256;61723;-69
2024/04/06 06:22:57;;;;;;;13.60;8.50;;;;;;;20.21;47.12;100226.85;108138;1253;59167;-69
2024/04/06 06:25:25;;;;;;;12.80;7.90;;;;;;;20.46;45.93;100227.98;108203;1257;73935;-69
2024/04/06 06:27:52;;;;;;;12.60;7.60;;;;;;;20.64;45.77;100231.05;108095;1253;70086;-70
2024/04/06 06:30:20;;;;;;;13.50;7.40;;;;;;;20.88;45.49;100229.73;108129;1257;72660;-69
2024/04/06 06:32:50;;;;;;;9.70;6.70;;;;;;;21.26;44.68;100232.60;108105;1253;61070;-69
2024/04/06 06:35:17;;;;;;;13.00;7.10;;;;;;;21.41;44.07;100231.61;107950;1251;59586;-69
2024/04/06 06:37:45;;;;;;;14.00;6.70;;;;;;;21.77;43.10;100223.81;108117;1252;73132;-69
2024/04/06 06:40:15;;;;;;;;;;;;;;;22.47;42.31;100222.50;108116;1254;68446;-70
2024/04/06 06:42:46;;;;;;;9.80;6.30;;;;;;;23.03;40.89;100219.59;108097;1257;71849;-70
2024/04/06 06:45:13;;;;;;;11.50;6.30;;;;;;;23.57;39.76;100214.73;108150;1251;61664;-69
2024/04/06 06:47:41;;;;;;;9.60;5.20;;;;;;;24.13;38.79;100208.55;108151;1252;61101;-69
2024/04/06 06:50:11;;;;;;;10.60;5.50;;;;;;;24.56;37.31;100205.78;108164;1257;74584;-69
2024/04/06 06:52:38;;;;;;;8.10;5.20;;;;;;;24.87;36.50;100199.41;108118;1252;69962;-68
2024/04/06 06:55:05;;;;;;;9.80;5.80;;;;;;;25.47;35.97;100194.86;108175;1251;72688;-70
2024/04/06 06:57:33;;;;;;;10.40;6.10;;;;;;;26.08;34.80;100190.02;108153;1253;61227;-69
2024/04/06 07:00:00;;;;;;;9.40;5.10;;;;;;;26.35;33.51;100191.05;108167;1254;59969;-70
2024/04/06 07:02:30;;;;;;;9.90;5.70;;;;;;;26.71;33.30;100190.64;108153;1254;74611;-69
2024/04/06 07:04:58;;;;;;;8.40;5.60;;;;;;;27.13;32.41;100184.45;108151;1257;70127;-70
2024/04/06 07:07:25;;;;;;;9.70;5.70;;;;;;;27.33;32.19;100181.45;108172;1253;73472;-69
2024/04/06 07:09:53;;;;;;;9.80;5.20;;;;;;;27.70;31.61;100176.24;108163;1252;61097;-69
2024/04/06 07:12:20;;;;;;;11.50;5.60;;;;;;;27.92;31.36;100174.60;108152;1257;61105;-69
2024/04/06 07:14:47;;;;;;;8.00;4.80;;;;;;;28.33;30.41;100168.14;108106;1255;74748;-71
2024/04/06 07:17:16;;;;;;;11.30;5.00;;;;;;;28.74;29.70;100170.05;108167;1253;70802;-70
2024/04/06 07:19:43;;;;;;;10.30;4.00;;;;;;;28.86;29.18;100172.20;108143;1253;72038;-70
2024/04/06 07:22:10;;;;;;;5.70;3.60;;;;;;;28.65;29.06;100167.40;108161;1251;61174;-70
2024/04/06 07:24:37;;;;;;;6.70;3.40;;;;;;;28.75;28.96;100161.81;108100;1254;62178;-69
2024/04/06 07:27:05;;;;;;;7.90;3.70;;;;;;;28.90;28.64;100154.79;108152;1256;74207;-69
2024/04/06 07:29:32;;;;;;;4.90;2.70;;;;;;;28.89;28.27;100153.37;108125;1251;70616;-70
2024/04/06 07:31:59;;;;;;;6.10;2.70;;;;;;;28.92;28.13;100153.52;108170;1251;72706;-70
2024/04/06 07:34:27;;;;;;;8.10;3.50;;;;;;;28.88;27.99;100152.89;108131;1257;61088;-69
2024/04/06 07:36:54;;;;;;;7.30;2.60;;;;;;;28.91;27.55;100149.70;108080;1257;61120;-70
2024/04/06 07:39:21;;;;;;;5.20;2.30;;;;;;;29.40;26.96;100144.56;108021;1254;74622;-70
2024/04/06 07:41:48;;;;;;;4.20;2.00;;;;;;;29.79;26.06;100138.20;108120;1254;70084;-70
2024/04/06 07:44:16;;;;;;;6.10;2.10;;;;;;;30.16;25.80;100133.69;108095;1254;72766;-69
2024/04/06 07:46:43;;;;;;;7.30;2.70;;;;;;;30.15;25.33;100133.73;108070;1254;61213;-70
2024/04/06 07:49:10;;;;;;;5.10;2.10;;;;;;;30.12;25.40;100128.14;108019;1254;62196;-70
2024/04/06 07:51:40;;;;;;;5.60;2.50;;;;;;;30.46;25.32;100128.45;108066;1254;74643;-71
2024/04/06 07:54:07;;;;;;;6.00;2.40;;;;;;;30.90;24.94;100125.10;108081;1254;70742;-70
2024/04/06 07:56:36;;;;;;;5.10;2.20;;;;;;;31.35;24.23;100119.65;108054;1259;71483;-71
2024/04/06 07:59:03;;;;;;;5.60;2.40;;;;;;;31.72;23.91;100115.22;108122;1256;61122;-71
2024/04/06 08:01:30;;;;;;;5.00;1.60;;;;;;;31.87;23.05;100116.87;108085;1254;61126;-70
2024/04/06 08:03:58;;;;;;;5.10;2.10;;;;;;;31.97;23.01;100111.23;108156;1254;75177;-69
2024/04/06 08:06:25;;;;;;;6.70;1.90;;;;;;;32.31;22.84;100107.96;108089;1254;70340;-71
2024/04/06 08:08:52;;;;;;;3.60;1.70;;;;;;;32.61;22.06;100109.74;108072;1257;74793;-70
2024/04/06 08:11:19;;;;;;;5.70;1.80;;;;;;;32.87;21.68;100106.72;108069;1254;61142;-70
2024/04/06 08:13:47;;;;;;;3.80;1.70;;;;;;;32.92;21.80;100105.05;108112;1254;61124;-70
2024/04/06 08:16:14;;;;;;;6.00;1.80;;;;;;;33.07;21.91;100099.84;108118;1252;73560;-71
2024/04/06 08:18:42;;;;;;;7.40;1.80;;;;;;;32.76;21.84;100101.09;108066;1253;72456;-71
2024/04/06 08:21:09;;;;;;;7.60;2.30;;;;;;;32.01;22.50;100098.40;108037;1256;72455;-71
2024/04/06 08:23:36;;;;;;;4.90;1.80;;;;;;;30.81;23.87;100089.55;108056;1254;61240;-71
2024/04/06 08:26:04;;;;;;;6.40;2.10;;;;;;;30.82;24.11;100090.56;108017;1257;61122;-69
2024/04/06 08:28:31;;;;;;;5.10;1.80;;;;;;;31.07;23.56;100083.94;107965;1254;74785;-69
2024/04/06 08:30:59;;;;;;;3.90;1.80;;;;;;;31.55;22.95;100079.83;108059;1254;69506;-69
2024/04/06 08:33:26;;;;;;;4.10;1.70;;;;;;;32.13;22.01;100077.95;108028;1255;72456;-69
2024/04/06 08:36:00;;;;;;;4.30;1.80;;;;;;;32.42;21.64;100078.62;108149;1253;61221;-72
2024/04/06 08:38:27;;;;;;;5.50;2.10;;;;;;;32.73;21.45;100075.35;108177;1257;61281;-70
2024/04/06 08:40:54;;;;;;;7.90;2.50;;;;;;;32.94;21.41;100074.61;108170;1254;74581;-70
2024/04/06 08:43:23;;;;;;;10.70;2.60;;;;;;;33.04;21.32;100070.71;108146;1256;70563;-70
2024/04/06 08:45:51;;;;;;;4.80;2.10;;;;;;;32.57;21.67;100069.73;108003;1254;72625;-71
2024/04/06 08:48:18;;;;;;;5.80;2.40;;;;;;;32.08;21.82;100065.42;108111;1254;61589;-71
2024/04/06 08:50:45;;;;;;;6.70;2.10;;;;;;;32.03;22.16;100062.25;108114;1252;61144;-71
2024/04/06 08:53:12;;;;;;;6.50;2.00;;;;;;;31.97;22.08;100061.16;108124;1254;74766;-71
2024/04/06 08:55:40;;;;;;;4.00;1.90;;;;;;;31.72;22.16;100062.65;108182;1254;70971;-71
2024/04/06 08:58:07;;;;;;;7.60;2.20;;;;;;;31.49;21.99;100061.25;108107;1254;74839;-71
2024/04/06 09:00:34;;;;;;;6.60;2.10;;;;;;;31.28;22.37;100053.58;108147;1254;61147;-72
2024/04/06 09:03:02;;;;;;;8.20;2.50;;;;;;;31.29;22.44;100048.37;108084;1254;61510;-71
2024/04/06 09:05:29;;;;;;;5.40;2.00;;;;;;;31.18;22.54;100043.48;108158;1254;75828;-71
2024/04/06 09:07:56;;;;;;;4.80;1.90;;;;;;;31.32;22.31;100041.40;108167;1254;70472;-70
2024/04/06 09:10:24;;;;;;;5.70;1.90;;;;;;;31.52;22.13;100037.23;108112;1254;73065;-71
2024/04/06 09:12:52;;;;;;;6.50;2.80;;;;;;;31.47;22.24;100035.86;108107;1253;61262;-70
2024/04/06 09:15:19;;;;;;;8.00;2.40;;;;;;;31.40;22.37;100036.89;108149;1254;61305;-71
2024/04/06 09:17:46;;;;;;;6.80;2.20;;;;;;;30.97;22.53;100040.29;108137;1253;76812;-72
2024/04/06 09:20:14;;;;;;;8.80;2.20;;;;;;;30.48;22.73;100041.94;108174;1254;72119;-71
2024/04/06 09:22:42;;;;;;;7.60;2.20;;;;;;;29.26;23.54;100050.33;108160;1254;72018;-71
2024/04/06 09:25:10;;;;;;;4.60;1.70;;;;;;;29.44;23.42;100042.98;108092;1252;61283;-71
2024/04/06 09:27:44;;;;;;;6.90;2.70;;;;;;;29.97;23.45;100038.54;108175;1254;61203;-71
2024/04/06 09:30:12;;;;;;;4.60;2.20;;;;;;;30.77;23.02;100029.99;108163;1252;74924;-69
2024/04/06 09:32:40;;;;;;;4.00;1.60;;;;;;;31.18;22.28;100027.33;108084;1257;70242;-70
2024/04/06 09:35:08;;;;;;;4.50;1.90;;;;;;;30.90;22.38;100024.97;108041;1254;72856;-70
2024/04/06 09:37:38;;;;;;;3.90;1.80;;;;;;;30.62;22.66;100021.94;107851;1254;61353;-70
2024/04/06 09:40:09;;;;;;;9.10;2.00;;;;;;;29.90;22.98;100024.30;108058;1254;59935;-69
2024/04/06 09:42:37;;;;;;;5.70;1.90;;;;;;;29.43;23.28;100015.33;108091;1254;73809;-71
2024/04/06 09:45:05;;;;;;;6.30;1.90;;;;;;;29.12;23.85;100022.19;108019;1254;72178;-71
2024/04/06 09:47:33;;;;;;;4.80;2.50;;;;;;;29.11;23.56;100017.76;108031;1254;72006;-70
2024/04/06 09:50:01;;;;;;;5.50;1.60;;;;;;;29.02;23.47;100018.96;108045;1254;61330;-69
2024/04/06 09:52:28;;;;;;;11.20;2.00;;;;;;;28.64;23.48;100016.17;108041;1254;61244;-71
2024/04/06 09:54:55;;;;;;;3.90;1.80;;;;;;;28.34;23.69;100011.84;107888;1260;74590;-71
2024/04/06 09:57:22;;;;;;;5.50;1.90;;;;;;;28.41;23.90;100008.81;108011;1253;70423;-71
2024/04/06 10:00:02;;;;;;;5.80;1.70;;;;;;;28.32;24.21;100011.85;107961;1259;72702;-71
2024/04/06 10:02:34;;;;;;;5.80;2.30;;;;;;;28.40;24.31;100008.98;108014;1259;61184;-70
2024/04/06 10:05:04;;;;;;;3.90;1.70;;;;;;;28.70;23.83;100001.31;108073;1253;60537;-71
2024/04/06 10:07:36;;;;;;;6.00;2.50;;;;;;;28.86;23.66;100000.23;108087;1254;77138;-71
2024/04/06 10:10:08;;;;;;;5.40;2.20;;;;;;;29.24;23.28;99991.67;108051;1254;70497;-71
2024/04/06 10:12:46;;;;;;;2.80;1.40;;;;;;;29.59;22.80;99989.70;108019;1254;72094;-71
2024/04/06 10:15:18;;;;;;;4.20;1.80;;;;;;;29.99;22.20;99985.60;108036;1253;60497;-71
2024/04/06 10:17:49;;;;;;;4.20;1.70;;;;;;;30.25;21.93;99979.50;108073;1253;60066;-70
2024/04/06 10:20:18;;;;;;;7.20;3.10;;;;;;;30.42;21.62;99981.80;108001;1253;74994;-70
2024/04/06 10:22:50;;;;;;;6.20;2.10;;;;;;;30.26;21.70;99982.61;108055;1259;69127;-70
2024/04/06 10:25:23;;;;;;;5.10;1.60;;;;;;;29.77;22.14;99981.05;108029;1255;71880;-71
2024/04/06 10:28:05;;;;;;;3.90;1.40;;;;;;;29.52;22.51;99979.91;108127;1254;61118;-71
2024/04/06 10:30:33;;;;;;;5.90;1.80;;;;;;;29.32;22.46;99970.63;108057;1254;61440;-68
2024/04/06 10:33:00;;;;;;;3.20;1.70;;;;;;;29.16;22.83;99977.08;108073;1259;74995;-71
2024/04/06 10:35:27;;;;;;;5.70;1.70;;;;;;;28.92;22.56;99974.80;108065;1254;70792;-71
2024/04/06 10:37:55;;;;;;;1.90;1.20;;;;;;;28.56;22.81;99975.28;108040;1254;73547;-70
2024/04/06 10:40:34;;;;;;;5.30;1.60;;;;;;;28.25;22.89;99973.54;108024;1255;61200;-70
2024/04/06 10:43:01;;;;;;;5.20;1.70;;;;;;;27.80;23.78;99971.64;108018;1254;61137;-70
2024/04/06 10:45:33;;;;;;;4.50;1.70;;;;;;;27.12;24.58;99976.14;108043;1259;75605;-71
2024/04/06 10:48:02;;;;;;;7.00;1.60;;;;;;;26.68;25.05;99971.44;108108;1254;72658;-70
2024/04/06 10:50:29;;;;;;;6.30;2.20;;;;;;;26.38;25.44;99972.65;108225;1254;72472;-70
2024/04/06 10:52:57;;;;;;;4.50;1.50;;;;;;;26.49;25.71;99968.45;108081;1253;61141;-70
2024/04/06 10:55:26;;;;;;;3.30;1.90;;;;;;;26.48;25.43;99965.83;108178;1253;61897;-70
2024/04/06 10:57:55;;;;;;;7.40;2.00;;;;;;;26.66;25.46;99961.10;108096;1253;74793;-69
2024/04/06 11:00:23;;;;;;;12.80;6.90;;;;;;;26.87;25.55;99954.08;108045;1254;72739;-70
2024/04/06 11:02:50;;;;;;;13.40;7.60;;;;;;;27.14;24.92;99948.64;108065;1253;74896;-70
2024/04/06 11:05:18;;;;;;;12.20;6.50;;;;;;;27.64;24.66;99944.00;108029;1254;62008;-70
2024/04/06 11:07:45;;;;;;;22.20;11.70;;;;;;;27.66;24.65;99940.09;108012;1254;61126;-71
2024/04/06 11:10:13;;;;;;;5.70;2.20;;;;;;;27.55;24.67;99943.14;108042;1255;76764;-70
2024/04/06 11:12:41;;;;;;;5.90;2.00;;;;;;;27.69;24.71;99936.21;108019;1254;70867;-70
2024/04/06 11:15:10;;;;;;;4.30;1.90;;;;;;;27.97;24.36;99929.61;108013;1254;74970;-71
2024/04/06 11:17:38;;;;;;;4.60;1.60;;;;;;;28.24;24.10;99926.79;108078;1254;61224;-71
2024/04/06 11:20:06;;;;;;;2.40;1.60;;;;;;;28.36;23.84;99922.37;108157;1254;61300;-69